sensor_id;sensor_type;location;lat;lon;timestamp;temperature;humidity
32839;DHT22;19182;41.820;12.808;2023-02-27T00:01:26;8.50;99.90
32839;DHT22;19182;41.820;12.808;2023-02-27T00:03:54;8.50;99.90
32839;DHT22;19182;41.820;12.808;2023-02-27T00:06:19;8.50;99.90
32839;DHT22;19182;41.820;12.808;2023-02-27T00:08:46;8.50;99.90
32839;DHT22;19182;41.820;12.808;2023-02-27T00:11:15;8.50;99.90
32839;DHT22;19182;41.820;12.808;2023-02-27T00:13:42;8.50;99.90
32839;DHT22;19182;41.820;12.808;2023-02-27T00:16:08;8.50;99.90
32839;DHT22;19182;41.820;12.808;2023-02-27T00:18:33;8.40;99.90
32839;DHT22;19182;41.820;12.808;2023-02-27T00:21:00;8.40;99.90
32839;DHT22;19182;41.820;12.808;2023-02-27T00:23:26;8.30;99.90
32839;DHT22;19182;41.820;12.808;2023-02-27T00:25:52;8.30;99.90
32839;DHT22;19182;41.820;12.808;2023-02-27T00:28:20;8.10;99.90
32839;DHT22;19182;41.820;12.808;2023-02-27T00:30:47;8.10;99.90
32839;DHT22;19182;41.820;12.808;2023-02-27T00:33:13;8.10;99.90
32839;DHT22;19182;41.820;12.808;2023-02-27T00:35:39;8.20;99.90
32839;DHT22;19182;41.820;12.808;2023-02-27T00:38:05;8.30;99.90
32839;DHT22;19182;41.820;12.808;2023-02-27T00:40:30;8.30;99.90
32839;DHT22;19182;41.820;12.808;2023-02-27T00:42:56;8.40;99.90
32839;DHT22;19182;41.820;12.808;2023-02-27T00:45:22;8.40;99.90
32839;DHT22;19182;41.820;12.808;2023-02-27T00:47:47;8.40;99.90
32839;DHT22;19182;41.820;12.808;2023-02-27T00:50:13;8.40;99.90
32839;DHT22;19182;41.820;12.808;2023-02-27T00:52:40;8.30;99.90
32839;DHT22;19182;41.820;12.808;2023-02-27T00:55:06;8.40;99.90
32839;DHT22;19182;41.820;12.808;2023-02-27T00:57:32;8.30;99.90
32839;DHT22;19182;41.820;12.808;2023-02-27T00:59:58;8.40;99.90
32839;DHT22;19182;41.820;12.808;2023-02-27T01:02:25;8.30;99.90
32839;DHT22;19182;41.820;12.808;2023-02-27T01:04:51;8.40;99.90
32839;DHT22;19182;41.820;12.808;2023-02-27T01:07:17;8.30;99.90
32839;DHT22;19182;41.820;12.808;2023-02-27T01:09:42;8.30;99.90
32839;DHT22;19182;41.820;12.808;2023-02-27T01:12:09;8.20;99.90
32839;DHT22;19182;41.820;12.808;2023-02-27T01:14:35;8.20;99.90
32839;DHT22;19182;41.820;12.808;2023-02-27T01:17:04;8.20;99.90
32839;DHT22;19182;41.820;12.808;2023-02-27T01:19:30;8.10;99.90
32839;DHT22;19182;41.820;12.808;2023-02-27T01:21:56;7.90;99.90
32839;DHT22;19182;41.820;12.808;2023-02-27T01:24:29;7.90;99.90
32839;DHT22;19182;41.820;12.808;2023-02-27T01:38:49;7.40;99.90
32839;DHT22;19182;41.820;12.808;2023-02-27T01:41:16;7.30;99.90
32839;DHT22;19182;41.820;12.808;2023-02-27T01:46:27;7.10;99.90
32839;DHT22;19182;41.820;12.808;2023-02-27T01:48:57;7.10;99.90
32839;DHT22;19182;41.820;12.808;2023-02-27T01:51:26;7.10;99.90
32839;DHT22;19182;41.820;12.808;2023-02-27T01:53:55;7.10;99.90
32839;DHT22;19182;41.820;12.808;2023-02-27T01:56:24;7.00;99.90
32839;DHT22;19182;41.820;12.808;2023-02-27T01:58:51;6.90;99.90
32839;DHT22;19182;41.820;12.808;2023-02-27T02:01:21;6.70;99.90
32839;DHT22;19182;41.820;12.808;2023-02-27T02:06:39;6.30;99.90
32839;DHT22;19182;41.820;12.808;2023-02-27T02:09:06;6.10;99.90
32839;DHT22;19182;41.820;12.808;2023-02-27T02:11:34;6.10;99.90
32839;DHT22;19182;41.820;12.808;2023-02-27T02:14:01;6.20;99.90
32839;DHT22;19182;41.820;12.808;2023-02-27T02:20:10;6.10;99.90
32839;DHT22;19182;41.820;12.808;2023-02-27T02:40:36;6.40;99.90
32839;DHT22;19182;41.820;12.808;2023-02-27T02:43:14;6.50;99.90
32839;DHT22;19182;41.820;12.808;2023-02-27T02:46:06;6.50;99.90
32839;DHT22;19182;41.820;12.808;2023-02-27T02:48:53;6.60;99.90
32839;DHT22;19182;41.820;12.808;2023-02-27T02:54:36;6.30;99.90
32839;DHT22;19182;41.820;12.808;2023-02-27T03:00:13;6.20;99.90
32839;DHT22;19182;41.820;12.808;2023-02-27T03:02:46;6.20;99.90
32839;DHT22;19182;41.820;12.808;2023-02-27T03:05:17;6.40;99.90
32839;DHT22;19182;41.820;12.808;2023-02-27T03:07:49;6.50;99.90
32839;DHT22;19182;41.820;12.808;2023-02-27T03:13:13;6.50;99.90
32839;DHT22;19182;41.820;12.808;2023-02-27T03:18:29;6.60;99.90
32839;DHT22;19182;41.820;12.808;2023-02-27T03:21:01;6.60;99.90
32839;DHT22;19182;41.820;12.808;2023-02-27T03:23:33;6.60;99.90
32839;DHT22;19182;41.820;12.808;2023-02-27T03:26:01;6.60;99.90
32839;DHT22;19182;41.820;12.808;2023-02-27T03:28:58;6.70;99.90
32839;DHT22;19182;41.820;12.808;2023-02-27T03:31:33;6.80;99.90
32839;DHT22;19182;41.820;12.808;2023-02-27T03:34:26;6.70;99.90
32839;DHT22;19182;41.820;12.808;2023-02-27T03:37:16;6.70;99.90
32839;DHT22;19182;41.820;12.808;2023-02-27T03:39:54;6.70;99.90
32839;DHT22;19182;41.820;12.808;2023-02-27T03:43:26;6.80;99.90
32839;DHT22;19182;41.820;12.808;2023-02-27T03:47:59;6.60;99.90
32839;DHT22;19182;41.820;12.808;2023-02-27T03:50:26;6.50;99.90
32839;DHT22;19182;41.820;12.808;2023-02-27T03:52:52;6.50;99.90
32839;DHT22;19182;41.820;12.808;2023-02-27T03:55:32;6.50;99.90
32839;DHT22;19182;41.820;12.808;2023-02-27T03:57:59;6.50;99.90
32839;DHT22;19182;41.820;12.808;2023-02-27T04:00:25;6.40;99.90
32839;DHT22;19182;41.820;12.808;2023-02-27T04:02:53;6.30;99.90
32839;DHT22;19182;41.820;12.808;2023-02-27T04:05:22;6.40;99.90
32839;DHT22;19182;41.820;12.808;2023-02-27T04:07:59;6.40;99.90
32839;DHT22;19182;41.820;12.808;2023-02-27T04:19:19;6.50;99.90
32839;DHT22;19182;41.820;12.808;2023-02-27T04:33:06;6.50;99.90
32839;DHT22;19182;41.820;12.808;2023-02-27T04:35:46;6.60;99.90
32839;DHT22;19182;41.820;12.808;2023-02-27T04:38:28;6.60;99.90
32839;DHT22;19182;41.820;12.808;2023-02-27T04:41:18;6.70;99.90
32839;DHT22;19182;41.820;12.808;2023-02-27T04:43:46;6.70;99.90
32839;DHT22;19182;41.820;12.808;2023-02-27T04:46:15;6.70;99.90
32839;DHT22;19182;41.820;12.808;2023-02-27T04:49:15;6.60;99.90
32839;DHT22;19182;41.820;12.808;2023-02-27T04:51:54;6.60;99.90
32839;DHT22;19182;41.820;12.808;2023-02-27T04:54:28;6.60;99.90
32839;DHT22;19182;41.820;12.808;2023-02-27T04:57:00;6.60;99.90
32839;DHT22;19182;41.820;12.808;2023-02-27T04:59:35;6.60;99.90
32839;DHT22;19182;41.820;12.808;2023-02-27T05:02:17;6.60;99.90
32839;DHT22;19182;41.820;12.808;2023-02-27T05:04:44;6.50;99.90
32839;DHT22;19182;41.820;12.808;2023-02-27T05:07:19;6.50;99.90
32839;DHT22;19182;41.820;12.808;2023-02-27T05:10:05;6.50;99.90
32839;DHT22;19182;41.820;12.808;2023-02-27T05:12:36;6.60;99.90
32839;DHT22;19182;41.820;12.808;2023-02-27T05:15:10;6.60;99.90
32839;DHT22;19182;41.820;12.808;2023-02-27T05:17:46;6.50;99.90
32839;DHT22;19182;41.820;12.808;2023-02-27T05:20:14;6.40;99.90
32839;DHT22;19182;41.820;12.808;2023-02-27T05:28:22;6.10;99.90
32839;DHT22;19182;41.820;12.808;2023-02-27T05:30:57;6.00;99.90
32839;DHT22;19182;41.820;12.808;2023-02-27T05:34:05;6.10;99.90
32839;DHT22;19182;41.820;12.808;2023-02-27T05:39:04;6.10;99.90
32839;DHT22;19182;41.820;12.808;2023-02-27T05:41:32;6.10;99.90
32839;DHT22;19182;41.820;12.808;2023-02-27T05:44:19;6.10;99.90
32839;DHT22;19182;41.820;12.808;2023-02-27T05:46:57;6.00;99.90
32839;DHT22;19182;41.820;12.808;2023-02-27T05:49:28;5.90;99.90
32839;DHT22;19182;41.820;12.808;2023-02-27T05:51:58;6.00;99.90
32839;DHT22;19182;41.820;12.808;2023-02-27T06:00:29;5.90;99.90
32839;DHT22;19182;41.820;12.808;2023-02-27T06:02:56;5.90;99.90
32839;DHT22;19182;41.820;12.808;2023-02-27T06:05:25;6.00;99.90
32839;DHT22;19182;41.820;12.808;2023-02-27T06:07:51;6.10;99.90
32839;DHT22;19182;41.820;12.808;2023-02-27T06:10:18;6.00;99.90
32839;DHT22;19182;41.820;12.808;2023-02-27T06:12:45;6.10;99.90
32839;DHT22;19182;41.820;12.808;2023-02-27T06:15:12;6.20;99.90
32839;DHT22;19182;41.820;12.808;2023-02-27T06:17:38;6.30;99.90
32839;DHT22;19182;41.820;12.808;2023-02-27T06:20:05;6.40;99.90
32839;DHT22;19182;41.820;12.808;2023-02-27T06:22:32;6.60;99.90
32839;DHT22;19182;41.820;12.808;2023-02-27T06:24:58;6.60;99.90
32839;DHT22;19182;41.820;12.808;2023-02-27T06:27:24;6.70;99.90
32839;DHT22;19182;41.820;12.808;2023-02-27T06:29:53;6.80;99.90
32839;DHT22;19182;41.820;12.808;2023-02-27T06:32:20;6.80;99.90
32839;DHT22;19182;41.820;12.808;2023-02-27T06:34:53;6.90;99.90
32839;DHT22;19182;41.820;12.808;2023-02-27T06:37:19;7.00;99.90
32839;DHT22;19182;41.820;12.808;2023-02-27T06:39:49;6.90;99.90
32839;DHT22;19182;41.820;12.808;2023-02-27T06:42:17;6.90;99.90
32839;DHT22;19182;41.820;12.808;2023-02-27T06:44:43;7.00;99.90
32839;DHT22;19182;41.820;12.808;2023-02-27T06:47:09;7.00;99.90
32839;DHT22;19182;41.820;12.808;2023-02-27T06:49:34;7.00;99.90
32839;DHT22;19182;41.820;12.808;2023-02-27T06:52:00;7.10;99.90
32839;DHT22;19182;41.820;12.808;2023-02-27T06:54:26;7.10;99.90
32839;DHT22;19182;41.820;12.808;2023-02-27T06:56:52;7.20;99.90
32839;DHT22;19182;41.820;12.808;2023-02-27T06:59:17;6.60;99.90
32839;DHT22;19182;41.820;12.808;2023-02-27T07:01:43;7.30;99.90
32839;DHT22;19182;41.820;12.808;2023-02-27T07:04:31;7.40;99.90
32839;DHT22;19182;41.820;12.808;2023-02-27T07:06:57;7.40;99.90
32839;DHT22;19182;41.820;12.808;2023-02-27T07:09:24;7.50;99.90
32839;DHT22;19182;41.820;12.808;2023-02-27T07:11:50;7.40;99.90
32839;DHT22;19182;41.820;12.808;2023-02-27T07:14:16;7.50;99.90
32839;DHT22;19182;41.820;12.808;2023-02-27T07:16:42;7.60;99.90
32839;DHT22;19182;41.820;12.808;2023-02-27T07:19:09;7.70;99.90
32839;DHT22;19182;41.820;12.808;2023-02-27T07:21:35;8.00;99.90
32839;DHT22;19182;41.820;12.808;2023-02-27T07:24:02;8.40;99.90
32839;DHT22;19182;41.820;12.808;2023-02-27T07:26:35;8.50;99.90
32839;DHT22;19182;41.820;12.808;2023-02-27T07:29:01;9.00;99.90
32839;DHT22;19182;41.820;12.808;2023-02-27T07:31:28;9.30;99.90
32839;DHT22;19182;41.820;12.808;2023-02-27T07:33:59;10.40;99.90
32839;DHT22;19182;41.820;12.808;2023-02-27T07:36:31;9.10;99.90
32839;DHT22;19182;41.820;12.808;2023-02-27T07:38:57;8.70;99.90
32839;DHT22;19182;41.820;12.808;2023-02-27T07:41:23;8.50;99.90
32839;DHT22;19182;41.820;12.808;2023-02-27T07:43:58;8.40;99.90
32839;DHT22;19182;41.820;12.808;2023-02-27T07:46:23;8.90;99.90
32839;DHT22;19182;41.820;12.808;2023-02-27T07:48:54;9.40;99.90
32839;DHT22;19182;41.820;12.808;2023-02-27T07:51:21;10.30;99.90
32839;DHT22;19182;41.820;12.808;2023-02-27T07:53:47;10.90;99.90
32839;DHT22;19182;41.820;12.808;2023-02-27T07:56:14;10.50;99.90
32839;DHT22;19182;41.820;12.808;2023-02-27T07:58:40;9.80;99.90
32839;DHT22;19182;41.820;12.808;2023-02-27T08:01:06;10.00;99.90
32839;DHT22;19182;41.820;12.808;2023-02-27T08:03:31;10.40;99.90
32839;DHT22;19182;41.820;12.808;2023-02-27T08:05:57;10.50;99.90
32839;DHT22;19182;41.820;12.808;2023-02-27T08:08:23;10.90;99.90
32839;DHT22;19182;41.820;12.808;2023-02-27T08:10:49;11.60;99.90
32839;DHT22;19182;41.820;12.808;2023-02-27T08:13:17;12.40;99.90
32839;DHT22;19182;41.820;12.808;2023-02-27T08:15:43;12.50;99.90
32839;DHT22;19182;41.820;12.808;2023-02-27T08:18:08;13.00;99.90
32839;DHT22;19182;41.820;12.808;2023-02-27T08:20:34;13.10;99.90
32839;DHT22;19182;41.820;12.808;2023-02-27T08:23:02;12.80;99.90
32839;DHT22;19182;41.820;12.808;2023-02-27T08:25:30;13.70;99.90
32839;DHT22;19182;41.820;12.808;2023-02-27T08:27:56;14.30;99.90
32839;DHT22;19182;41.820;12.808;2023-02-27T08:30:22;15.50;99.90
32839;DHT22;19182;41.820;12.808;2023-02-27T08:32:47;16.80;99.90
32839;DHT22;19182;41.820;12.808;2023-02-27T08:35:13;16.40;99.90
32839;DHT22;19182;41.820;12.808;2023-02-27T08:37:39;17.10;99.90
32839;DHT22;19182;41.820;12.808;2023-02-27T08:40:06;16.80;99.90
32839;DHT22;19182;41.820;12.808;2023-02-27T08:42:33;16.70;99.90
32839;DHT22;19182;41.820;12.808;2023-02-27T08:44:58;16.70;99.90
32839;DHT22;19182;41.820;12.808;2023-02-27T08:47:26;15.20;99.90
32839;DHT22;19182;41.820;12.808;2023-02-27T08:49:54;14.60;99.90
32839;DHT22;19182;41.820;12.808;2023-02-27T08:52:21;15.40;99.90
32839;DHT22;19182;41.820;12.808;2023-02-27T08:54:46;16.10;99.90
32839;DHT22;19182;41.820;12.808;2023-02-27T08:57:12;17.00;99.90
32839;DHT22;19182;41.820;12.808;2023-02-27T08:59:39;17.50;99.90
32839;DHT22;19182;41.820;12.808;2023-02-27T09:02:05;17.60;99.90
32839;DHT22;19182;41.820;12.808;2023-02-27T09:04:32;18.40;99.90
32839;DHT22;19182;41.820;12.808;2023-02-27T09:06:57;20.30;99.90
32839;DHT22;19182;41.820;12.808;2023-02-27T09:09:23;20.80;99.90
32839;DHT22;19182;41.820;12.808;2023-02-27T09:11:50;20.90;99.90
32839;DHT22;19182;41.820;12.808;2023-02-27T09:14:16;20.40;99.90
32839;DHT22;19182;41.820;12.808;2023-02-27T09:16:41;20.20;99.90
32839;DHT22;19182;41.820;12.808;2023-02-27T09:19:07;21.10;99.90
32839;DHT22;19182;41.820;12.808;2023-02-27T09:21:35;19.90;99.90
32839;DHT22;19182;41.820;12.808;2023-02-27T09:24:03;19.40;99.90
32839;DHT22;19182;41.820;12.808;2023-02-27T09:26:30;19.50;99.90
32839;DHT22;19182;41.820;12.808;2023-02-27T09:28:55;19.00;99.90
32839;DHT22;19182;41.820;12.808;2023-02-27T09:31:21;17.10;99.90
32839;DHT22;19182;41.820;12.808;2023-02-27T09:33:47;15.90;99.90
32839;DHT22;19182;41.820;12.808;2023-02-27T09:36:13;15.60;99.90
32839;DHT22;19182;41.820;12.808;2023-02-27T09:38:38;15.80;99.90
32839;DHT22;19182;41.820;12.808;2023-02-27T09:41:06;16.00;99.90
32839;DHT22;19182;41.820;12.808;2023-02-27T09:43:47;17.30;99.90
32839;DHT22;19182;41.820;12.808;2023-02-27T09:46:22;18.30;99.90
32839;DHT22;19182;41.820;12.808;2023-02-27T09:48:51;18.30;99.90
32839;DHT22;19182;41.820;12.808;2023-02-27T09:51:18;18.30;99.90
32839;DHT22;19182;41.820;12.808;2023-02-27T09:53:48;18.60;99.90
32839;DHT22;19182;41.820;12.808;2023-02-27T09:56:17;17.50;99.90
32839;DHT22;19182;41.820;12.808;2023-02-27T09:59:54;18.10;99.90
32839;DHT22;19182;41.820;12.808;2023-02-27T10:02:01;18.80;99.90
32839;DHT22;19182;41.820;12.808;2023-02-27T10:12:45;19.50;99.90
32839;DHT22;19182;41.820;12.808;2023-02-27T10:15:36;20.30;99.90
32839;DHT22;19182;41.820;12.808;2023-02-27T10:18:33;19.90;99.90
32839;DHT22;19182;41.820;12.808;2023-02-27T10:21:03;18.90;99.90
32839;DHT22;19182;41.820;12.808;2023-02-27T10:24:04;19.00;99.90
32839;DHT22;19182;41.820;12.808;2023-02-27T10:26:36;19.80;99.90
32839;DHT22;19182;41.820;12.808;2023-02-27T10:29:36;18.70;99.90
32839;DHT22;19182;41.820;12.808;2023-02-27T10:32:29;19.60;99.90
32839;DHT22;19182;41.820;12.808;2023-02-27T10:37:59;20.20;99.90
32839;DHT22;19182;41.820;12.808;2023-02-27T10:40:26;19.40;99.90
32839;DHT22;19182;41.820;12.808;2023-02-27T10:42:54;19.30;99.90
32839;DHT22;19182;41.820;12.808;2023-02-27T10:45:20;19.50;99.90
32839;DHT22;19182;41.820;12.808;2023-02-27T10:47:46;19.80;99.90
32839;DHT22;19182;41.820;12.808;2023-02-27T10:50:32;19.40;99.90
32839;DHT22;19182;41.820;12.808;2023-02-27T10:53:00;18.90;99.90
32839;DHT22;19182;41.820;12.808;2023-02-27T10:55:58;18.50;99.90
32839;DHT22;19182;41.820;12.808;2023-02-27T10:58:27;18.40;99.90
32839;DHT22;19182;41.820;12.808;2023-02-27T11:00:56;18.30;99.90
32839;DHT22;19182;41.820;12.808;2023-02-27T11:03:34;18.30;99.90
32839;DHT22;19182;41.820;12.808;2023-02-27T11:06:19;17.90;99.90
32839;DHT22;19182;41.820;12.808;2023-02-27T11:11:38;19.60;99.90
32839;DHT22;19182;41.820;12.808;2023-02-27T11:14:28;20.20;99.90
32839;DHT22;19182;41.820;12.808;2023-02-27T11:16:59;20.70;99.90
32839;DHT22;19182;41.820;12.808;2023-02-27T11:19:33;19.60;99.90
32839;DHT22;19182;41.820;12.808;2023-02-27T11:22:20;19.30;99.90
32839;DHT22;19182;41.820;12.808;2023-02-27T11:24:49;19.60;99.90
32839;DHT22;19182;41.820;12.808;2023-02-27T11:27:22;19.80;99.90
32839;DHT22;19182;41.820;12.808;2023-02-27T11:30:08;19.80;99.90
32839;DHT22;19182;41.820;12.808;2023-02-27T11:32:44;18.80;99.90
32839;DHT22;19182;41.820;12.808;2023-02-27T11:35:32;16.90;99.90
32839;DHT22;19182;41.820;12.808;2023-02-27T11:38:06;15.40;99.90
32839;DHT22;19182;41.820;12.808;2023-02-27T11:40:38;14.60;99.90
32839;DHT22;19182;41.820;12.808;2023-02-27T11:43:39;14.30;99.90
32839;DHT22;19182;41.820;12.808;2023-02-27T11:46:12;13.90;99.90
32839;DHT22;19182;41.820;12.808;2023-02-27T11:48:59;14.00;99.90
32839;DHT22;19182;41.820;12.808;2023-02-27T11:51:48;15.20;99.90
32839;DHT22;19182;41.820;12.808;2023-02-27T11:57:26;17.00;99.90
32839;DHT22;19182;41.820;12.808;2023-02-27T12:02:58;16.70;99.90
32839;DHT22;19182;41.820;12.808;2023-02-27T12:05:32;16.40;99.90
32839;DHT22;19182;41.820;12.808;2023-02-27T12:11:05;16.30;99.90
32839;DHT22;19182;41.820;12.808;2023-02-27T12:13:35;17.10;99.90
32839;DHT22;19182;41.820;12.808;2023-02-27T12:18:53;15.70;99.90
32839;DHT22;19182;41.820;12.808;2023-02-27T12:21:26;15.60;99.90
32839;DHT22;19182;41.820;12.808;2023-02-27T12:24:08;14.90;99.90
32839;DHT22;19182;41.820;12.808;2023-02-27T12:26:41;14.70;99.90
32839;DHT22;19182;41.820;12.808;2023-02-27T12:29:28;14.70;99.90
32839;DHT22;19182;41.820;12.808;2023-02-27T12:32:08;14.40;99.90
32839;DHT22;19182;41.820;12.808;2023-02-27T12:37:27;14.10;99.90
32839;DHT22;19182;41.820;12.808;2023-02-27T12:39:55;14.10;99.90
32839;DHT22;19182;41.820;12.808;2023-02-27T12:45:38;14.00;99.90
32839;DHT22;19182;41.820;12.808;2023-02-27T12:54:34;13.70;99.90
32839;DHT22;19182;41.820;12.808;2023-02-27T12:56:55;13.40;99.90
32839;DHT22;19182;41.820;12.808;2023-02-27T13:02:43;13.40;99.90
32839;DHT22;19182;41.820;12.808;2023-02-27T13:08:47;13.60;99.90
32839;DHT22;19182;41.820;12.808;2023-02-27T13:11:55;13.60;99.90
32839;DHT22;19182;41.820;12.808;2023-02-27T13:25:31;13.90;99.90
32839;DHT22;19182;41.820;12.808;2023-02-27T13:28:05;13.90;99.90
32839;DHT22;19182;41.820;12.808;2023-02-27T13:30:38;14.10;99.90
32839;DHT22;19182;41.820;12.808;2023-02-27T13:33:29;14.90;99.90
32839;DHT22;19182;41.820;12.808;2023-02-27T13:38:51;14.60;99.90
32839;DHT22;19182;41.820;12.808;2023-02-27T13:43:56;14.00;99.90
32839;DHT22;19182;41.820;12.808;2023-02-27T13:46:30;13.90;99.90
32839;DHT22;19182;41.820;12.808;2023-02-27T13:49:26;13.50;99.90
32839;DHT22;19182;41.820;12.808;2023-02-27T13:51:53;13.20;99.90
32839;DHT22;19182;41.820;12.808;2023-02-27T13:54:24;13.20;99.90
32839;DHT22;19182;41.820;12.808;2023-02-27T13:59:32;13.70;99.90
32839;DHT22;19182;41.820;12.808;2023-02-27T14:02:25;13.90;99.90
32839;DHT22;19182;41.820;12.808;2023-02-27T14:04:53;14.20;99.90
32839;DHT22;19182;41.820;12.808;2023-02-27T14:07:22;14.40;99.90
32839;DHT22;19182;41.820;12.808;2023-02-27T14:10:01;14.50;99.90
32839;DHT22;19182;41.820;12.808;2023-02-27T14:12:40;14.50;99.90
32839;DHT22;19182;41.820;12.808;2023-02-27T14:17:57;14.20;99.90
32839;DHT22;19182;41.820;12.808;2023-02-27T14:23:15;14.40;99.90
32839;DHT22;19182;41.820;12.808;2023-02-27T14:25:49;14.30;99.90
32839;DHT22;19182;41.820;12.808;2023-02-27T14:28:28;13.80;99.90
32839;DHT22;19182;41.820;12.808;2023-02-27T14:31:03;13.40;99.90
32839;DHT22;19182;41.820;12.808;2023-02-27T14:33:44;13.50;99.90
32839;DHT22;19182;41.820;12.808;2023-02-27T14:36:31;13.80;99.90
32839;DHT22;19182;41.820;12.808;2023-02-27T14:39:00;13.50;99.90
32839;DHT22;19182;41.820;12.808;2023-02-27T14:41:51;13.40;99.90
32839;DHT22;19182;41.820;12.808;2023-02-27T14:44:24;13.30;99.90
32839;DHT22;19182;41.820;12.808;2023-02-27T14:46:54;13.10;99.90
32839;DHT22;19182;41.820;12.808;2023-02-27T14:49:29;13.20;99.90
32839;DHT22;19182;41.820;12.808;2023-02-27T14:52:19;13.00;99.90
32839;DHT22;19182;41.820;12.808;2023-02-27T14:54:48;12.90;99.90
32839;DHT22;19182;41.820;12.808;2023-02-27T14:57:20;12.60;99.90
32839;DHT22;19182;41.820;12.808;2023-02-27T14:59:49;12.40;99.90
32839;DHT22;19182;41.820;12.808;2023-02-27T15:02:25;12.30;99.90
32839;DHT22;19182;41.820;12.808;2023-02-27T15:05:11;12.30;99.90
32839;DHT22;19182;41.820;12.808;2023-02-27T15:07:40;12.20;99.90
32839;DHT22;19182;41.820;12.808;2023-02-27T15:10:31;12.20;99.90
32839;DHT22;19182;41.820;12.808;2023-02-27T15:13:00;12.20;99.90
32839;DHT22;19182;41.820;12.808;2023-02-27T15:15:26;12.30;99.90
32839;DHT22;19182;41.820;12.808;2023-02-27T15:17:54;12.20;99.90
32839;DHT22;19182;41.820;12.808;2023-02-27T15:22:55;12.30;99.90
32839;DHT22;19182;41.820;12.808;2023-02-27T15:25:31;12.20;99.90
32839;DHT22;19182;41.820;12.808;2023-02-27T15:28:01;12.20;99.90
32839;DHT22;19182;41.820;12.808;2023-02-27T15:30:28;12.20;99.90
32839;DHT22;19182;41.820;12.808;2023-02-27T15:32:54;12.20;99.90
32839;DHT22;19182;41.820;12.808;2023-02-27T15:35:35;12.10;99.90
32839;DHT22;19182;41.820;12.808;2023-02-27T15:38:01;12.20;99.90
32839;DHT22;19182;41.820;12.808;2023-02-27T15:40:29;12.00;99.90
32839;DHT22;19182;41.820;12.808;2023-02-27T15:42:57;11.80;99.90
32839;DHT22;19182;41.820;12.808;2023-02-27T15:45:28;11.70;99.90
32839;DHT22;19182;41.820;12.808;2023-02-27T15:47:55;11.60;99.90
32839;DHT22;19182;41.820;12.808;2023-02-27T15:50:37;11.40;99.90
32839;DHT22;19182;41.820;12.808;2023-02-27T15:53:15;11.30;99.90
32839;DHT22;19182;41.820;12.808;2023-02-27T15:55:44;11.30;99.90
32839;DHT22;19182;41.820;12.808;2023-02-27T16:00:40;11.20;99.90
32839;DHT22;19182;41.820;12.808;2023-02-27T16:03:07;11.10;99.90
32839;DHT22;19182;41.820;12.808;2023-02-27T16:05:35;11.00;99.90
32839;DHT22;19182;41.820;12.808;2023-02-27T16:08:04;10.90;99.90
32839;DHT22;19182;41.820;12.808;2023-02-27T16:10:43;10.90;99.90
32839;DHT22;19182;41.820;12.808;2023-02-27T16:13:27;10.80;99.90
32839;DHT22;19182;41.820;12.808;2023-02-27T16:16:03;10.90;99.90
32839;DHT22;19182;41.820;12.808;2023-02-27T16:18:49;10.90;99.90
32839;DHT22;19182;41.820;12.808;2023-02-27T16:21:16;10.80;99.90
32839;DHT22;19182;41.820;12.808;2023-02-27T16:23:43;10.80;99.90
32839;DHT22;19182;41.820;12.808;2023-02-27T16:26:29;10.80;99.90
32839;DHT22;19182;41.820;12.808;2023-02-27T16:29:02;10.70;99.90
32839;DHT22;19182;41.820;12.808;2023-02-27T16:31:32;10.70;99.90
32839;DHT22;19182;41.820;12.808;2023-02-27T16:34:12;10.80;99.90
32839;DHT22;19182;41.820;12.808;2023-02-27T16:36:54;10.80;99.90
32839;DHT22;19182;41.820;12.808;2023-02-27T16:39:20;10.70;99.90
32839;DHT22;19182;41.820;12.808;2023-02-27T16:41:46;10.70;99.90
32839;DHT22;19182;41.820;12.808;2023-02-27T16:44:11;10.70;99.90
32839;DHT22;19182;41.820;12.808;2023-02-27T16:46:43;10.70;99.90
32839;DHT22;19182;41.820;12.808;2023-02-27T16:49:28;10.70;99.90
32839;DHT22;19182;41.820;12.808;2023-02-27T16:51:54;10.60;99.90
32839;DHT22;19182;41.820;12.808;2023-02-27T16:54:21;10.60;99.90
32839;DHT22;19182;41.820;12.808;2023-02-27T16:56:48;10.50;99.90
32839;DHT22;19182;41.820;12.808;2023-02-27T17:01:53;10.40;99.90
32839;DHT22;19182;41.820;12.808;2023-02-27T17:04:20;10.30;99.90
32839;DHT22;19182;41.820;12.808;2023-02-27T17:06:46;10.30;99.90
32839;DHT22;19182;41.820;12.808;2023-02-27T17:09:12;10.10;99.90
32839;DHT22;19182;41.820;12.808;2023-02-27T17:11:37;10.10;99.90
32839;DHT22;19182;41.820;12.808;2023-02-27T17:14:03;10.00;99.90
32839;DHT22;19182;41.820;12.808;2023-02-27T17:16:29;10.00;99.90
32839;DHT22;19182;41.820;12.808;2023-02-27T17:18:54;9.90;99.90
32839;DHT22;19182;41.820;12.808;2023-02-27T17:21:20;9.80;99.90
32839;DHT22;19182;41.820;12.808;2023-02-27T17:23:46;9.80;99.90
32839;DHT22;19182;41.820;12.808;2023-02-27T17:26:12;9.70;99.90
32839;DHT22;19182;41.820;12.808;2023-02-27T17:28:38;9.60;99.90
32839;DHT22;19182;41.820;12.808;2023-02-27T17:31:08;9.50;99.90
32839;DHT22;19182;41.820;12.808;2023-02-27T17:33:35;9.50;99.90
32839;DHT22;19182;41.820;12.808;2023-02-27T17:36:05;9.60;99.90
32839;DHT22;19182;41.820;12.808;2023-02-27T17:38:33;9.60;99.90
32839;DHT22;19182;41.820;12.808;2023-02-27T17:41:04;9.60;99.90
32839;DHT22;19182;41.820;12.808;2023-02-27T17:43:30;9.50;99.90
32839;DHT22;19182;41.820;12.808;2023-02-27T17:45:56;9.40;99.90
32839;DHT22;19182;41.820;12.808;2023-02-27T17:48:22;9.40;99.90
32839;DHT22;19182;41.820;12.808;2023-02-27T17:50:49;9.40;99.90
32839;DHT22;19182;41.820;12.808;2023-02-27T17:53:16;9.30;99.90
32839;DHT22;19182;41.820;12.808;2023-02-27T17:55:43;9.20;99.90
32839;DHT22;19182;41.820;12.808;2023-02-27T17:58:10;9.10;99.90
32839;DHT22;19182;41.820;12.808;2023-02-27T18:00:35;9.00;99.90
32839;DHT22;19182;41.820;12.808;2023-02-27T18:03:01;9.10;99.90
32839;DHT22;19182;41.820;12.808;2023-02-27T18:05:27;9.10;99.90
32839;DHT22;19182;41.820;12.808;2023-02-27T18:07:53;9.10;99.90
32839;DHT22;19182;41.820;12.808;2023-02-27T18:10:19;9.10;99.90
32839;DHT22;19182;41.820;12.808;2023-02-27T18:12:45;9.10;99.90
32839;DHT22;19182;41.820;12.808;2023-02-27T18:15:11;9.00;99.90
32839;DHT22;19182;41.820;12.808;2023-02-27T18:17:38;9.00;99.90
32839;DHT22;19182;41.820;12.808;2023-02-27T18:20:05;8.90;99.90
32839;DHT22;19182;41.820;12.808;2023-02-27T18:22:31;8.80;99.90
32839;DHT22;19182;41.820;12.808;2023-02-27T18:24:58;8.60;99.90
32839;DHT22;19182;41.820;12.808;2023-02-27T18:27:24;8.50;99.90
32839;DHT22;19182;41.820;12.808;2023-02-27T18:29:51;8.40;99.90
32839;DHT22;19182;41.820;12.808;2023-02-27T18:32:18;8.40;99.90
32839;DHT22;19182;41.820;12.808;2023-02-27T18:34:43;8.40;99.90